Kent, Illinois
Current Conditions -  °F | °C
As of 10:15 PM on Saturday 25 Oct 2014 (Local Time) from KFEP Reporting Station
Clear Clear  
Wind Chill: 46°   Ceiling: Unl
Heat Index: 48°   Visibility: 10mi
Dew Point: 31°   Wind: 6mph
Humidity: 51%   Direction: 270°W
Pressure: 30.03"   Gusts: NA
Location:  42.31°N, 89.9°W
Report Text: KFEP 260315Z AUTO 27005KT 10SM CLR 09/M01 A3003 RMK AO2 T00901007
Loading
Personal Weather Stations






























Interactive Weather Map New forecast layout! Learn more

10-Day Weather Forecast

Advertisements
Track Severe Weather on mobile